Fuerteventura > ESTACION METEOROLÓGICA Pájara

DATOS ACTUALES Online

Ultima actulizacion 1 minutos

17.4 ºC

Temperatura

49

Humedad (%)

1025.4

Presión (mb)

0

Precipitación (mm)

7.8 O

Viento (Km/h)

DATOS DIARIOS

Temperatura últimas 24 horas (ºC)

Humedad últimas 24 horas (%)

Presión atmosférica últimas 24 horas (mb)

Precipitaciones últimas 23 horas (mm)

Viento últimas 24 horas (Km/h)

Hora Temperatura (°C) ºC Precipitación (mm) mm Presión (mb) mb Humedad (%) % Viento (Km/h) km/h
19 - 11:00 12.2 13.8 1025 85 5.6 O
19 - 12:00 13.1 14.2 1025 81 7.8 O
19 - 13:00 13.5 14.2 1025 81 7.2 O
19 - 14:00 14.5 14.2 1025 78 6.3 O
19 - 15:00 15.1 14.2 1024 75 6.8 O
19 - 16:00 16 14.2 1023 71 7.2 O
19 - 17:00 16.2 14.2 1023 68 7.3 O
19 - 18:00 16.6 14.2 1023 64 8.4 O
19 - 19:00 17.2 14.2 1023 60 7.6 O
19 - 20:00 17.5 14.2 1023 57 5.7 O
19 - 21:00 17.1 14.2 1023 62 5.3 O
19 - 22:00 18 14.2 1024 55 5.9 O
19 - 23:00 18 14.2 1025 54 5.9 O
20 - 00:00 18 0 1024 55 7 O
20 - 01:00 18.4 0 1024 53 8.2 O
20 - 02:00 18.4 0 1024 52 8 O
20 - 03:00 18.3 0 1024 47 7.3 O
20 - 04:00 17.9 0 1024 49 6 O
20 - 05:00 17.7 0 1023 49 5.6 O
20 - 06:00 17.6 0 1023 47 6.6 O
20 - 07:00 17.3 0 1023 47 8.2 O
20 - 08:00 17 0 1024 49 7.3 O
20 - 09:00 16.7 0 1024 49 7.7 O
20 - 10:00 17 0 1025 50 7.8 O
20 - 11:00 17.4 0 1025 49 7.8 O
Apalmet utiliza cookies propias y de terceros para mejorar la usabilidad y la experiencia web. Política de cookies.